Time;durP1;ratioP1;P1;durP2;ratioP2;P2;SDS_P1;SDS_P2;PMS_P1;PMS_P2;Temp;Humidity;BMP_temperature;BMP_pressure;BME280_temperature;BME280_humidity;BME280_pressure;Samples;Min_cycle;Max_cycle;Signal;HPM_P1;HPM_P2
2022/01/27 00:02:54;;;;;;;16.37;8.95;;;1.40;88.10;;;;;;1918520;75;21044;-44
2022/01/27 00:07:58;;;;;;;13.93;8.53;;;1.70;87.70;;;;;;1918774;75;21093;-45
2022/01/27 00:12:48;;;;;;;16.42;8.95;;;1.60;86.10;;;;;;1918873;75;21024;-45
2022/01/27 00:15:17;;;;;;;23.15;10.32;;;1.50;86.00;;;;;;1918546;75;21125;-44
2022/01/27 00:17:56;;;;;;;13.35;9.25;;;1.50;87.20;;;;;;1918576;74;21103;-45
2022/01/27 00:20:17;;;;;;;13.78;9.13;;;1.60;87.00;;;;;;1916851;75;21090;-45
2022/01/27 00:22:47;;;;;;;16.80;8.73;;;1.50;86.80;;;;;;1918658;75;21032;-44
2022/01/27 00:25:16;;;;;;;14.90;8.78;;;1.50;87.30;;;;;;1918500;74;21039;-45
2022/01/27 00:27:46;;;;;;;11.73;7.40;;;1.60;86.70;;;;;;1924580;74;21502;-46
2022/01/27 00:30:16;;;;;;;8.58;6.62;;;1.50;86.50;;;;;;1924658;74;21024;-44
2022/01/27 00:32:45;;;;;;;18.20;10.20;;;1.40;85.40;;;;;;1924656;74;21023;-45
2022/01/27 00:35:14;;;;;;;15.00;7.92;;;1.30;86.20;;;;;;1924580;74;21085;-45
2022/01/27 00:37:44;;;;;;;15.28;9.20;;;1.20;87.10;;;;;;1924732;74;21089;-46
2022/01/27 00:40:13;;;;;;;12.45;8.00;;;1.10;85.60;;;;;;1924522;74;21095;-45
2022/01/27 00:42:44;;;;;;;16.65;9.25;;;1.00;84.60;;;;;;1924620;74;21019;-44
2022/01/27 00:45:14;;;;;;;8.43;6.65;;;0.80;86.60;;;;;;1924519;74;21086;-45
2022/01/27 00:47:43;;;;;;;11.63;7.55;;;0.70;86.40;;;;;;1924718;74;21036;-47
2022/01/27 00:50:16;;;;;;;14.23;8.85;;;0.70;85.80;;;;;;1924542;74;21039;-45
2022/01/27 00:52:48;;;;;;;17.42;10.68;;;0.60;86.80;;;;;;1924456;74;21154;-45
2022/01/27 00:55:15;;;;;;;17.25;9.83;;;0.70;87.60;;;;;;1924142;74;21028;-45
2022/01/27 01:00:30;;;;;;;15.98;9.60;;;1.00;88.20;;;;;;1924599;74;21079;-44
2022/01/27 01:03:02;;;;;;;13.45;8.40;;;1.20;88.00;;;;;;1923688;74;21020;-45
2022/01/27 01:05:58;;;;;;;13.85;8.50;;;1.30;87.40;;;;;;1923414;74;21004;-45
2022/01/27 01:14:18;;;;;;;12.90;8.75;;;1.20;84.80;;;;;;1924944;74;21024;-45
2022/01/27 01:16:01;;;;;;;17.75;10.48;;;1.00;86.10;;;;;;1920129;74;21047;-45
2022/01/27 01:18:53;;;;;;;15.30;8.45;;;1.00;87.00;;;;;;1924579;74;21119;-45
2022/01/27 01:21:40;;;;;;;11.30;7.10;;;1.10;87.80;;;;;;1922684;74;21048;-45
2022/01/27 01:32:53;;;;;;;11.68;7.53;;;1.10;86.60;;;;;;1924620;74;21024;-45
2022/01/27 01:34:46;;;;;;;16.00;9.93;;;1.10;86.30;;;;;;1915870;74;21032;-45
2022/01/27 01:37:17;;;;;;;16.52;9.28;;;1.00;86.10;;;;;;1924392;74;21036;-45
2022/01/27 01:39:44;;;;;;;11.68;8.68;;;1.00;87.20;;;;;;1924168;74;21067;-46
2022/01/27 01:42:13;;;;;;;16.87;9.05;;;1.00;87.10;;;;;;1924493;74;21087;-46
2022/01/27 01:44:43;;;;;;;13.15;8.40;;;0.90;86.50;;;;;;1924563;74;21028;-45
2022/01/27 01:47:13;;;;;;;14.23;8.78;;;1.00;87.20;;;;;;1924533;74;21032;-45
2022/01/27 01:49:43;;;;;;;17.17;8.18;;;0.90;86.30;;;;;;1924632;74;21451;-45
2022/01/27 01:52:12;;;;;;;14.80;8.35;;;0.90;86.60;;;;;;1924595;74;21106;-45
2022/01/27 01:54:41;;;;;;;16.17;8.80;;;0.90;86.50;;;;;;1924688;74;21012;-45
2022/01/27 01:57:11;;;;;;;17.45;8.73;;;0.80;86.20;;;;;;1924648;74;21091;-45
2022/01/27 01:59:40;;;;;;;17.77;9.30;;;0.70;85.50;;;;;;1924822;74;21133;-45
2022/01/27 02:02:12;;;;;;;16.62;9.08;;;0.60;86.80;;;;;;1924742;74;21083;-45
2022/01/27 02:04:41;;;;;;;15.03;9.48;;;0.60;87.40;;;;;;1924799;74;21097;-44
2022/01/27 02:07:42;;;;;;;16.37;8.65;;;0.70;87.60;;;;;;1924664;74;21035;-45
2022/01/27 02:10:11;;;;;;;11.03;7.33;;;0.80;87.50;;;;;;1921611;74;21090;-44
2022/01/27 02:18:08;;;;;;;20.00;9.93;;;0.70;86.30;;;;;;1924696;74;21117;-45
2022/01/27 02:20:41;;;;;;;17.55;9.40;;;0.70;87.20;;;;;;1924755;74;21035;-44
2022/01/27 02:23:11;;;;;;;20.12;10.13;;;0.70;87.70;;;;;;1924832;74;21081;-45
2022/01/27 02:25:41;;;;;;;19.98;10.85;;;0.80;88.10;;;;;;1924718;74;21091;-44
2022/01/27 02:28:10;;;;;;;20.45;10.30;;;1.00;87.80;;;;;;1913815;74;21146;-44
2022/01/27 02:30:39;;;;;;;20.10;10.38;;;1.00;87.20;;;;;;1908601;75;21111;-45
2022/01/27 02:33:09;;;;;;;20.08;10.20;;;1.10;87.30;;;;;;1908645;75;21021;-44
2022/01/27 02:35:38;;;;;;;21.33;10.43;;;1.10;87.70;;;;;;1908633;75;21098;-45
2022/01/27 02:38:08;;;;;;;23.80;11.03;;;1.20;87.80;;;;;;1908551;75;21033;-44
2022/01/27 02:40:46;;;;;;;21.00;12.50;;;1.30;87.80;;;;;;1908469;75;21078;-45
2022/01/27 02:43:16;;;;;;;21.90;9.70;;;1.40;87.80;;;;;;1908315;75;21056;-44
2022/01/27 02:46:06;;;;;;;21.52;10.32;;;1.40;87.70;;;;;;1908379;75;21098;-44
2022/01/27 02:48:36;;;;;;;20.52;9.80;;;1.50;87.20;;;;;;1908535;75;21119;-45
2022/01/27 02:51:05;;;;;;;23.65;9.80;;;1.50;87.00;;;;;;1908501;75;21491;-44
2022/01/27 02:53:35;;;;;;;21.00;9.78;;;1.50;87.10;;;;;;1908427;75;21146;-45
2022/01/27 02:56:05;;;;;;;18.25;10.28;;;1.50;87.30;;;;;;1908524;75;21052;-44
2022/01/27 02:58:34;;;;;;;23.50;11.68;;;1.40;87.40;;;;;;1908430;75;21110;-46
2022/01/27 03:01:04;;;;;;;20.12;9.13;;;1.50;87.50;;;;;;1908528;75;21102;-45
2022/01/27 03:03:34;;;;;;;22.40;11.48;;;1.50;87.70;;;;;;1908335;75;21028;-45
2022/01/27 03:06:03;;;;;;;19.92;11.45;;;1.60;87.90;;;;;;1908462;75;21036;-45
2022/01/27 03:08:32;;;;;;;19.12;10.85;;;1.70;87.70;;;;;;1908498;75;21520;-46
2022/01/27 03:11:04;;;;;;;19.35;11.20;;;1.70;87.60;;;;;;1908359;75;21032;-46
2022/01/27 03:13:34;;;;;;;21.07;10.30;;;1.80;87.40;;;;;;1908225;75;21044;-46
2022/01/27 03:16:06;;;;;;;20.80;10.78;;;1.80;87.00;;;;;;1908400;75;21098;-44
2022/01/27 03:18:34;;;;;;;21.33;10.80;;;1.80;87.10;;;;;;1908335;75;21479;-44
2022/01/27 03:21:04;;;;;;;19.70;10.25;;;1.80;87.40;;;;;;1908435;75;21033;-45
2022/01/27 03:23:35;;;;;;;25.72;12.07;;;1.80;87.40;;;;;;1908539;75;21564;-45
2022/01/27 03:26:04;;;;;;;23.98;13.18;;;1.80;87.40;;;;;;1908468;75;21040;-45
2022/01/27 03:28:34;;;;;;;18.40;10.98;;;1.80;87.70;;;;;;1908466;75;21048;-45
2022/01/27 03:31:03;;;;;;;21.05;11.12;;;1.80;87.60;;;;;;1908354;75;21090;-45
2022/01/27 03:33:32;;;;;;;18.00;11.73;;;1.80;87.30;;;;;;1908643;75;21045;-45
2022/01/27 03:36:01;;;;;;;22.42;11.68;;;1.80;87.30;;;;;;1908589;75;21544;-45
2022/01/27 03:38:31;;;;;;;24.87;12.65;;;1.80;88.10;;;;;;1908576;75;21102;-45
2022/01/27 03:41:05;;;;;;;20.35;11.65;;;1.80;87.60;;;;;;1908480;75;21149;-45
2022/01/27 03:43:31;;;;;;;18.50;11.18;;;1.80;87.20;;;;;;1908177;75;21060;-47
2022/01/27 03:46:01;;;;;;;21.85;10.88;;;1.80;87.00;;;;;;1908554;75;21024;-47
2022/01/27 03:48:31;;;;;;;19.95;12.18;;;1.80;86.70;;;;;;1908631;75;21048;-46
2022/01/27 03:51:00;;;;;;;22.75;11.88;;;1.70;86.70;;;;;;1908551;75;21095;-45
2022/01/27 03:53:29;;;;;;;21.87;11.28;;;1.60;86.30;;;;;;1908513;75;21076;-45
2022/01/27 03:55:59;;;;;;;20.08;10.70;;;1.50;87.30;;;;;;1908438;75;21106;-45
2022/01/27 03:58:29;;;;;;;23.50;11.57;;;1.60;87.40;;;;;;1908508;75;21028;-47
2022/01/27 04:00:58;;;;;;;23.45;11.75;;;1.60;87.60;;;;;;1908590;75;21024;-45
2022/01/27 04:03:29;;;;;;;23.62;12.33;;;1.60;87.60;;;;;;1908612;75;21044;-46
2022/01/27 04:06:05;;;;;;;28.20;12.03;;;1.70;87.70;;;;;;1908474;75;21028;-45
2022/01/27 04:08:29;;;;;;;22.15;11.45;;;1.70;87.70;;;;;;1907601;75;21478;-46
2022/01/27 04:10:59;;;;;;;20.25;11.12;;;1.80;87.70;;;;;;1908339;75;21088;-46
2022/01/27 04:13:28;;;;;;;21.10;11.28;;;1.80;87.60;;;;;;1908409;75;21110;-45
2022/01/27 04:15:58;;;;;;;19.27;10.98;;;1.90;87.70;;;;;;1908391;75;21032;-45
2022/01/27 04:18:27;;;;;;;20.00;10.68;;;1.90;87.70;;;;;;1908380;75;21090;-45
2022/01/27 04:20:57;;;;;;;19.42;10.63;;;1.90;87.50;;;;;;1908444;75;21032;-45
2022/01/27 04:23:26;;;;;;;22.90;10.68;;;2.00;87.50;;;;;;1908474;75;21103;-45
2022/01/27 04:25:55;;;;;;;22.55;12.95;;;2.00;87.60;;;;;;1908318;75;21082;-44
2022/01/27 04:28:29;;;;;;;20.52;12.33;;;2.00;87.60;;;;;;1908366;75;21052;-45
2022/01/27 04:30:58;;;;;;;20.80;11.50;;;2.00;87.60;;;;;;1908092;75;21078;-45
2022/01/27 04:33:30;;;;;;;23.27;11.75;;;2.10;87.60;;;;;;1908373;75;21000;-45
2022/01/27 04:36:00;;;;;;;22.60;12.82;;;2.10;87.60;;;;;;1908283;75;21032;-45
2022/01/27 04:38:41;;;;;;;20.97;11.60;;;2.10;87.60;;;;;;1908368;75;21106;-45
2022/01/27 04:41:13;;;;;;;19.62;11.08;;;2.20;87.50;;;;;;1907548;75;21052;-45
2022/01/27 04:46:34;;;;;;;27.07;13.08;;;2.10;87.30;;;;;;1908432;75;21106;-45
2022/01/27 04:49:01;;;;;;;25.20;11.77;;;2.10;86.90;;;;;;1907578;75;21028;-45
2022/01/27 04:51:28;;;;;;;26.60;13.10;;;2.10;87.00;;;;;;1907975;75;21048;-46
2022/01/27 04:54:11;;;;;;;30.62;13.93;;;2.00;87.30;;;;;;1908474;75;21098;-46
2022/01/27 04:56:37;;;;;;;27.95;13.00;;;2.00;87.60;;;;;;1907605;75;21154;-45
2022/01/27 04:59:42;;;;;;;22.98;12.53;;;2.10;87.70;;;;;;1908477;75;21130;-45
2022/01/27 05:01:56;;;;;;;22.22;12.63;;;2.10;87.70;;;;;;1897803;75;21106;-46
2022/01/27 05:04:24;;;;;;;24.02;12.07;;;2.20;87.70;;;;;;1907690;74;21059;-46
2022/01/27 05:06:51;;;;;;;30.72;13.68;;;2.20;87.70;;;;;;1908142;75;21029;-46
2022/01/27 05:09:23;;;;;;;27.80;12.50;;;2.20;87.60;;;;;;1908418;75;21083;-45
2022/01/27 05:12:07;;;;;;;26.23;12.65;;;2.30;87.60;;;;;;1908292;75;21044;-45
2022/01/27 05:14:24;;;;;;;25.10;12.78;;;2.30;87.60;;;;;;1905493;75;21012;-48
2022/01/27 05:16:54;;;;;;;29.50;12.28;;;2.30;87.60;;;;;;1908445;75;21044;-49
2022/01/27 05:19:23;;;;;;;32.08;14.45;;;2.40;87.60;;;;;;1908384;75;21032;-46
2022/01/27 05:21:53;;;;;;;22.70;11.75;;;2.40;87.40;;;;;;1908456;75;21033;-46
2022/01/27 05:24:22;;;;;;;25.15;13.45;;;2.40;87.50;;;;;;1908382;75;21443;-46
2022/01/27 05:26:52;;;;;;;36.03;18.75;;;2.40;88.00;;;;;;1908494;75;21013;-46
2022/01/27 05:29:22;;;;;;;31.65;15.98;;;2.40;87.30;;;;;;1900316;75;21162;-46
2022/01/27 05:31:51;;;;;;;27.45;14.33;;;2.40;87.00;;;;;;1888090;75;21150;-45
2022/01/27 05:34:21;;;;;;;23.22;13.53;;;2.40;87.40;;;;;;1888108;75;21130;-46
2022/01/27 05:36:50;;;;;;;23.02;12.80;;;2.40;87.50;;;;;;1888184;76;21025;-46
2022/01/27 05:39:19;;;;;;;29.75;14.18;;;2.50;87.50;;;;;;1888246;76;21166;-46
2022/01/27 05:41:49;;;;;;;26.93;12.28;;;2.60;87.60;;;;;;1888257;75;21099;-46
2022/01/27 05:44:18;;;;;;;23.62;14.43;;;2.60;87.50;;;;;;1888024;75;21021;-46
2022/01/27 05:46:48;;;;;;;24.85;13.75;;;2.70;87.50;;;;;;1888143;75;21005;-45
2022/01/27 05:49:17;;;;;;;54.48;25.05;;;2.80;87.40;;;;;;1888199;76;21087;-45
2022/01/27 05:51:47;;;;;;;23.67;13.13;;;2.90;87.20;;;;;;1888124;75;21029;-46
2022/01/27 05:54:16;;;;;;;30.25;12.07;;;2.90;86.80;;;;;;1888095;76;21170;-47
2022/01/27 05:56:46;;;;;;;23.65;11.43;;;2.90;86.90;;;;;;1888035;75;21119;-47
2022/01/27 05:59:15;;;;;;;21.65;10.10;;;2.90;86.70;;;;;;1888079;75;21021;-46
2022/01/27 06:01:44;;;;;;;18.05;10.58;;;3.00;86.80;;;;;;1888329;75;21005;-46
2022/01/27 06:04:14;;;;;;;20.20;11.15;;;3.00;86.60;;;;;;1888191;76;21136;-46
2022/01/27 06:06:44;;;;;;;20.65;10.93;;;3.00;86.80;;;;;;1888204;76;21029;-47
2022/01/27 06:09:14;;;;;;;20.52;10.93;;;3.10;86.60;;;;;;1888179;75;21028;-46
2022/01/27 06:11:43;;;;;;;22.17;10.85;;;3.20;87.00;;;;;;1888096;75;21037;-45
2022/01/27 06:14:13;;;;;;;17.40;10.28;;;3.20;86.50;;;;;;1888210;75;21029;-46
2022/01/27 06:16:44;;;;;;;18.12;9.93;;;3.30;86.60;;;;;;1888288;76;21106;-47
2022/01/27 06:19:13;;;;;;;18.90;9.75;;;3.30;86.60;;;;;;1888086;75;21021;-46
2022/01/27 06:21:44;;;;;;;21.95;10.82;;;3.40;86.30;;;;;;1888164;75;21107;-46
2022/01/27 06:24:13;;;;;;;18.45;9.65;;;3.50;86.30;;;;;;1888202;75;21025;-46
2022/01/27 06:26:43;;;;;;;19.65;10.25;;;3.60;86.00;;;;;;1888100;75;21087;-46
2022/01/27 06:29:12;;;;;;;19.45;9.38;;;3.70;85.70;;;;;;1887994;75;21009;-45
2022/01/27 06:31:41;;;;;;;17.15;9.18;;;3.70;85.20;;;;;;1888080;75;21104;-45
2022/01/27 06:34:11;;;;;;;16.97;9.13;;;3.70;85.00;;;;;;1888146;75;21017;-45
2022/01/27 06:36:40;;;;;;;13.72;8.30;;;3.70;85.30;;;;;;1888197;76;21032;-46
2022/01/27 06:39:10;;;;;;;15.00;8.73;;;3.70;85.30;;;;;;1888074;75;21036;-46
2022/01/27 06:41:39;;;;;;;16.85;8.45;;;3.70;84.90;;;;;;1888235;75;21033;-46
2022/01/27 06:44:09;;;;;;;19.45;10.43;;;3.70;85.20;;;;;;1888107;76;21044;-44
2022/01/27 06:46:38;;;;;;;15.78;10.75;;;3.70;85.40;;;;;;1888053;75;21033;-45
2022/01/27 06:49:09;;;;;;;20.12;10.43;;;3.70;84.30;;;;;;1888078;76;21096;-45
2022/01/27 06:51:38;;;;;;;15.10;8.38;;;3.70;85.10;;;;;;1888195;76;21044;-46
2022/01/27 06:54:08;;;;;;;16.27;8.88;;;3.70;85.30;;;;;;1888089;76;21021;-46
2022/01/27 06:56:37;;;;;;;16.42;9.60;;;3.60;84.10;;;;;;1888075;75;21024;-46
2022/01/27 06:59:06;;;;;;;20.85;9.63;;;3.50;84.40;;;;;;1888166;75;21072;-45
2022/01/27 07:01:36;;;;;;;16.02;10.32;;;3.50;85.20;;;;;;1888183;76;21040;-46
2022/01/27 07:04:06;;;;;;;17.42;9.15;;;3.60;84.10;;;;;;1888077;75;21061;-45
2022/01/27 07:06:36;;;;;;;19.12;10.05;;;3.60;84.30;;;;;;1888090;75;21036;-46
2022/01/27 07:09:05;;;;;;;16.12;9.10;;;3.60;85.00;;;;;;1888076;76;21025;-46
2022/01/27 07:11:35;;;;;;;17.77;9.00;;;3.60;84.90;;;;;;1888076;75;21044;-46
2022/01/27 07:14:04;;;;;;;16.60;8.48;;;3.70;85.00;;;;;;1888085;76;21083;-46
2022/01/27 07:16:34;;;;;;;19.32;10.50;;;3.80;85.20;;;;;;1888055;75;21087;-45
2022/01/27 07:19:04;;;;;;;17.45;10.18;;;3.80;83.90;;;;;;1888094;75;21010;-46
2022/01/27 07:21:33;;;;;;;16.62;10.20;;;3.90;84.70;;;;;;1888202;75;21033;-45
2022/01/27 07:24:03;;;;;;;17.20;9.18;;;3.90;84.60;;;;;;1888113;75;21013;-46
2022/01/27 07:26:32;;;;;;;17.95;8.83;;;3.90;84.40;;;;;;1888199;75;21155;-46
2022/01/27 07:29:02;;;;;;;14.55;9.50;;;3.90;84.50;;;;;;1888213;75;21088;-45
2022/01/27 07:31:31;;;;;;;19.10;9.93;;;4.00;84.80;;;;;;1888073;75;21065;-46
2022/01/27 07:34:01;;;;;;;18.85;10.00;;;4.00;84.30;;;;;;1888113;75;21037;-46
2022/01/27 07:36:31;;;;;;;18.25;9.25;;;4.10;84.00;;;;;;1888216;76;21056;-46
2022/01/27 07:39:01;;;;;;;15.90;8.88;;;4.10;82.60;;;;;;1888067;75;21033;-46
2022/01/27 07:41:30;;;;;;;18.23;11.18;;;4.00;82.30;;;;;;1888092;75;21029;-46
2022/01/27 07:44:00;;;;;;;14.23;7.92;;;3.90;83.50;;;;;;1888112;76;21107;-46
2022/01/27 07:46:29;;;;;;;17.27;9.40;;;3.90;83.50;;;;;;1888061;75;21009;-45
2022/01/27 07:48:58;;;;;;;13.72;7.72;;;4.00;84.10;;;;;;1888039;75;21025;-45
2022/01/27 07:51:28;;;;;;;17.77;8.40;;;4.10;84.10;;;;;;1887986;75;21076;-45
2022/01/27 07:53:57;;;;;;;13.93;7.80;;;4.20;83.70;;;;;;1888152;75;21475;-45
2022/01/27 07:56:27;;;;;;;14.18;8.30;;;4.30;83.70;;;;;;1888277;75;21005;-47
2022/01/27 07:58:56;;;;;;;13.45;9.10;;;4.40;83.50;;;;;;1888057;75;21029;-44
2022/01/27 08:01:26;;;;;;;10.88;7.53;;;4.40;83.30;;;;;;1888182;75;21017;-45
2022/01/27 08:03:56;;;;;;;12.82;8.13;;;4.50;82.80;;;;;;1888016;75;21020;-45
2022/01/27 08:06:25;;;;;;;15.72;9.33;;;4.40;82.90;;;;;;1888076;75;21033;-45
2022/01/27 08:08:55;;;;;;;17.50;9.45;;;4.50;82.80;;;;;;1888130;75;21092;-45
2022/01/27 08:11:24;;;;;;;16.73;10.38;;;4.50;83.10;;;;;;1888126;76;21032;-47
2022/01/27 08:13:54;;;;;;;14.83;9.58;;;4.60;82.90;;;;;;1887954;76;21076;-46
2022/01/27 08:16:23;;;;;;;15.43;9.38;;;4.60;83.00;;;;;;1888155;75;21040;-46
2022/01/27 08:18:52;;;;;;;16.82;9.55;;;4.60;82.30;;;;;;1888158;75;21073;-45
2022/01/27 08:21:22;;;;;;;14.73;9.33;;;4.70;82.40;;;;;;1888096;75;21350;-47
2022/01/27 08:23:51;;;;;;;16.85;9.88;;;4.70;82.40;;;;;;1888024;76;21085;-44
2022/01/27 08:26:35;;;;;;;17.80;9.33;;;4.70;82.30;;;;;;1888216;76;21025;-46
2022/01/27 08:29:09;;;;;;;14.75;9.03;;;4.70;82.40;;;;;;1886640;76;21049;-45
2022/01/27 08:31:33;;;;;;;13.80;7.72;;;4.80;82.10;;;;;;1885815;75;21190;-45
2022/01/27 08:34:03;;;;;;;12.18;8.18;;;4.90;81.20;;;;;;1887588;75;21156;-45
2022/01/27 08:36:31;;;;;;;13.95;8.53;;;4.80;80.70;;;;;;1887818;75;21436;-45
2022/01/27 08:39:01;;;;;;;18.35;9.38;;;4.80;80.00;;;;;;1888079;75;21120;-44
2022/01/27 08:41:30;;;;;;;14.93;8.90;;;4.80;80.20;;;;;;1888108;75;21100;-46
2022/01/27 08:43:59;;;;;;;12.55;7.67;;;4.80;80.00;;;;;;1888084;76;21067;-47
2022/01/27 08:46:29;;;;;;;11.00;7.95;;;4.80;78.50;;;;;;1888069;75;21020;-46
2022/01/27 08:48:58;;;;;;;23.30;7.83;;;4.70;75.60;;;;;;1888163;76;21087;-45
2022/01/27 08:51:29;;;;;;;12.00;7.83;;;4.70;78.20;;;;;;1888092;76;21017;-45
2022/01/27 08:53:58;;;;;;;12.00;7.70;;;4.60;77.50;;;;;;1888025;76;21029;-45
2022/01/27 08:56:27;;;;;;;15.32;9.80;;;4.60;77.80;;;;;;1888181;76;21028;-45
2022/01/27 08:58:57;;;;;;;13.65;8.18;;;4.60;78.90;;;;;;1888100;76;21127;-47
2022/01/27 09:01:27;;;;;;;20.40;10.18;;;4.60;79.20;;;;;;1887990;75;21028;-46
2022/01/27 09:03:56;;;;;;;15.13;8.48;;;4.60;78.00;;;;;;1888011;76;21025;-46
2022/01/27 09:06:28;;;;;;;14.87;8.65;;;4.70;77.60;;;;;;1888045;75;21029;-45
2022/01/27 09:08:59;;;;;;;17.42;8.83;;;4.70;77.30;;;;;;1888025;76;21049;-45
2022/01/27 09:11:30;;;;;;;16.70;9.08;;;4.70;76.20;;;;;;1888161;76;21452;-46
2022/01/27 09:14:01;;;;;;;16.57;8.43;;;4.70;76.90;;;;;;1888105;75;21470;-45
2022/01/27 09:16:31;;;;;;;14.13;7.78;;;4.50;76.70;;;;;;1888037;76;21005;-45
2022/01/27 09:19:02;;;;;;;14.65;7.53;;;4.50;76.60;;;;;;1887969;75;21033;-45
2022/01/27 09:21:42;;;;;;;11.35;7.55;;;4.40;76.00;;;;;;1888063;75;21017;-46
2022/01/27 09:24:02;;;;;;;16.10;8.30;;;4.20;76.80;;;;;;1885620;76;21050;-45
2022/01/27 09:29:22;;;;;;;12.85;7.72;;;4.20;79.00;;;;;;1891205;74;21044;-46
2022/01/27 09:31:51;;;;;;;16.20;8.13;;;4.20;78.20;;;;;;1857107;76;21078;-45
2022/01/27 09:34:21;;;;;;;12.28;7.72;;;4.30;78.10;;;;;;1868664;77;21027;-46
2022/01/27 09:36:50;;;;;;;14.58;7.40;;;4.40;77.30;;;;;;1868655;77;21031;-45
2022/01/27 09:39:22;;;;;;;10.85;7.42;;;4.30;74.60;;;;;;1868793;77;21039;-45
2022/01/27 09:41:56;;;;;;;11.75;8.13;;;4.20;75.30;;;;;;1868861;77;21027;-45
2022/01/27 09:44:32;;;;;;;9.58;6.50;;;4.10;75.60;;;;;;1868805;76;21034;-45
2022/01/27 09:47:13;;;;;;;11.45;7.17;;;4.00;75.70;;;;;;1868764;77;21543;-46
2022/01/27 09:49:49;;;;;;;12.37;7.90;;;3.90;76.10;;;;;;1868787;76;21101;-45
2022/01/27 09:52:12;;;;;;;14.83;7.72;;;3.90;76.10;;;;;;1867799;76;21078;-46
2022/01/27 09:54:44;;;;;;;14.35;8.25;;;3.90;76.00;;;;;;1868671;77;21042;-45
2022/01/27 09:57:17;;;;;;;16.50;8.45;;;3.80;76.30;;;;;;1868848;77;21074;-45
2022/01/27 09:59:47;;;;;;;15.32;8.35;;;3.80;76.60;;;;;;1868719;77;21031;-45
2022/01/27 10:02:19;;;;;;;19.15;11.30;;;3.90;76.40;;;;;;1868817;77;21011;-46
2022/01/27 10:04:53;;;;;;;16.90;9.83;;;4.00;76.60;;;;;;1868788;77;21047;-45
2022/01/27 10:07:23;;;;;;;;;;;4.10;76.10;;;;;;1871185;76;21101;-46
2022/01/27 10:10:04;;;;;;;14.60;8.18;;;4.20;75.80;;;;;;1868848;77;20158;-45
2022/01/27 10:12:38;;;;;;;15.20;8.53;;;4.30;77.20;;;;;;1868841;77;21113;-45
2022/01/27 10:15:17;;;;;;;16.15;8.05;;;4.40;76.20;;;;;;1868852;76;21055;-47
2022/01/27 10:18:04;;;;;;;19.40;9.23;;;4.50;72.50;;;;;;1869008;77;21042;-46
2022/01/27 10:20:36;;;;;;;13.28;8.10;;;4.60;74.70;;;;;;1868809;77;21031;-44
2022/01/27 10:23:20;;;;;;;15.18;8.33;;;4.60;72.50;;;;;;1867785;77;21042;-44
2022/01/27 10:25:56;;;;;;;16.23;8.28;;;4.50;73.20;;;;;;1868214;77;21047;-45
2022/01/27 10:28:45;;;;;;;17.27;9.98;;;4.50;74.10;;;;;;1868280;77;21078;-44
2022/01/27 10:31:18;;;;;;;15.70;8.45;;;4.50;74.20;;;;;;1867819;76;21035;-45
2022/01/27 10:33:49;;;;;;;17.45;9.78;;;4.50;73.40;;;;;;1845261;78;21141;-43
2022/01/27 10:36:32;;;;;;;14.25;9.75;;;4.60;75.10;;;;;;1884065;76;21517;-44
2022/01/27 10:39:03;;;;;;;15.55;8.05;;;4.60;73.00;;;;;;1883627;76;21063;-44
2022/01/27 10:41:35;;;;;;;15.05;9.65;;;4.60;72.20;;;;;;1884085;76;21092;-43
2022/01/27 10:44:15;;;;;;;15.20;8.98;;;4.50;71.90;;;;;;1884029;76;21037;-44
2022/01/27 10:47:11;;;;;;;13.90;8.03;;;4.40;73.00;;;;;;1883976;76;21061;-43
2022/01/27 10:49:42;;;;;;;18.67;10.00;;;4.20;72.20;;;;;;1883968;76;20985;-45
2022/01/27 10:52:13;;;;;;;17.07;8.63;;;4.10;72.70;;;;;;1883385;76;21491;-45
2022/01/27 10:54:49;;;;;;;15.75;7.37;;;4.10;72.60;;;;;;1884178;76;21005;-44
2022/01/27 10:57:14;;;;;;;16.75;11.48;;;4.00;70.30;;;;;;1883155;76;21037;-43
2022/01/27 10:59:44;;;;;;;15.78;8.98;;;3.90;72.50;;;;;;1884023;76;21048;-43
2022/01/27 11:02:14;;;;;;;14.40;9.65;;;3.80;72.80;;;;;;1884157;76;21060;-44
2022/01/27 11:04:45;;;;;;;20.92;11.33;;;3.70;72.00;;;;;;1884023;76;21049;-44
2022/01/27 11:07:17;;;;;;;10.95;6.85;;;3.60;71.90;;;;;;1883935;76;20993;-44
2022/01/27 11:09:46;;;;;;;21.87;10.93;;;3.60;72.80;;;;;;1884082;76;21475;-45
2022/01/27 11:12:20;;;;;;;18.80;10.60;;;3.60;73.50;;;;;;1884097;76;21087;-43
2022/01/27 11:14:51;;;;;;;21.05;11.63;;;3.60;73.30;;;;;;1883337;76;21578;-44
2022/01/27 11:17:22;;;;;;;22.48;12.33;;;3.60;74.20;;;;;;1884292;76;21064;-43
2022/01/27 11:20:51;;;;;;;14.65;9.88;;;3.70;74.50;;;;;;1884156;76;21388;-43
2022/01/27 11:22:41;;;;;;;17.27;9.45;;;3.70;73.30;;;;;;1871692;76;21146;-44
2022/01/27 11:27:33;;;;;;;18.07;9.95;;;3.60;73.30;;;;;;1884127;76;21451;-44
2022/01/27 11:30:20;;;;;;;23.22;11.95;;;3.50;73.60;;;;;;1882945;76;21048;-45
2022/01/27 11:33:01;;;;;;;22.62;11.35;;;3.40;73.90;;;;;;1843751;77;21086;-44
2022/01/27 11:35:33;;;;;;;15.72;9.98;;;3.30;73.70;;;;;;1836626;78;21066;-44
2022/01/27 11:38:05;;;;;;;23.85;13.30;;;3.30;74.10;;;;;;1813401;78;21183;-44
2022/01/27 11:40:43;;;;;;;18.90;11.15;;;3.20;74.10;;;;;;1806273;79;21085;-45
2022/01/27 11:43:17;;;;;;;23.27;12.05;;;3.10;74.60;;;;;;1805001;79;21106;-44
2022/01/27 11:45:48;;;;;;;23.27;12.10;;;3.00;75.40;;;;;;1836639;78;21110;-45
2022/01/27 11:48:26;;;;;;;21.62;12.88;;;3.00;75.10;;;;;;1836586;78;21084;-44
2022/01/27 11:51:09;;;;;;;19.23;12.03;;;2.90;75.40;;;;;;1836660;78;21062;-45
2022/01/27 11:53:51;;;;;;;18.23;9.68;;;2.90;74.70;;;;;;1806461;79;21147;-44
2022/01/27 11:56:35;;;;;;;17.35;9.75;;;2.80;74.80;;;;;;1806506;79;21082;-45
2022/01/27 11:59:05;;;;;;;17.45;10.58;;;2.80;74.60;;;;;;1806278;79;21098;-44
2022/01/27 12:01:35;;;;;;;23.00;11.28;;;2.60;73.70;;;;;;1837344;78;21145;-44
2022/01/27 12:04:07;;;;;;;17.10;8.88;;;2.50;74.20;;;;;;1883615;76;21146;-44
2022/01/27 12:06:45;;;;;;;11.80;9.03;;;2.40;74.20;;;;;;1883670;76;20986;-45
2022/01/27 12:09:24;;;;;;;14.18;8.55;;;2.40;74.80;;;;;;1883667;76;21605;-43
2022/01/27 12:12:00;;;;;;;12.75;7.50;;;2.30;75.20;;;;;;1883841;76;21072;-45
2022/01/27 12:14:36;;;;;;;17.60;9.55;;;2.30;74.60;;;;;;1883665;76;21048;-45
2022/01/27 12:17:17;;;;;;;7.12;4.65;;;2.20;75.30;;;;;;1883702;76;21056;-45
2022/01/27 12:20:11;;;;;;;13.48;8.95;;;2.10;74.40;;;;;;1883974;76;21087;-44
2022/01/27 12:22:50;;;;;;;8.93;5.45;;;2.10;75.20;;;;;;1883742;76;21083;-44
2022/01/27 12:25:17;;;;;;;19.65;10.60;;;2.10;74.90;;;;;;1883264;76;21005;-45
2022/01/27 12:27:55;;;;;;;16.77;9.30;;;2.00;75.40;;;;;;1883792;76;21083;-44
2022/01/27 12:30:25;;;;;;;17.92;10.75;;;2.00;76.10;;;;;;1883728;76;21052;-44
2022/01/27 12:32:56;;;;;;;18.45;10.23;;;1.90;76.00;;;;;;1885987;75;21153;-46
2022/01/27 12:35:25;;;;;;;16.00;9.83;;;2.00;76.90;;;;;;1899661;75;21037;-46
2022/01/27 12:37:57;;;;;;;18.90;9.40;;;2.10;76.30;;;;;;1857401;77;21053;-45
2022/01/27 12:40:30;;;;;;;20.43;10.15;;;2.10;76.30;;;;;;1899541;75;21129;-44
2022/01/27 12:43:03;;;;;;;16.10;9.10;;;2.20;76.50;;;;;;1857262;77;21053;-45
2022/01/27 12:45:35;;;;;;;10.05;5.80;;;2.20;76.50;;;;;;1899607;75;21082;-44
2022/01/27 12:48:14;;;;;;;26.10;11.00;;;2.20;76.30;;;;;;1857648;77;21066;-43
2022/01/27 12:50:41;;;;;;;16.55;10.10;;;2.20;76.50;;;;;;1900122;75;21088;-44
2022/01/27 12:53:12;;;;;;;17.02;9.73;;;2.30;75.70;;;;;;1900270;75;21012;-45
2022/01/27 12:55:43;;;;;;;16.00;7.97;;;2.20;76.50;;;;;;1900142;75;21012;-46
2022/01/27 12:58:15;;;;;;;18.00;10.72;;;2.30;75.40;;;;;;1858059;77;21042;-45
2022/01/27 13:00:46;;;;;;;14.70;9.53;;;2.30;75.90;;;;;;1900210;75;21036;-45
2022/01/27 13:03:16;;;;;;;18.50;8.98;;;2.30;76.10;;;;;;1857975;77;21049;-45
2022/01/27 13:05:53;;;;;;;17.52;10.65;;;2.30;76.10;;;;;;1900238;75;21008;-46
2022/01/27 13:08:31;;;;;;;17.07;10.23;;;2.30;75.90;;;;;;1858053;77;21041;-46
2022/01/27 13:11:03;;;;;;;16.97;9.85;;;2.20;76.20;;;;;;1899674;75;21032;-46
2022/01/27 13:13:36;;;;;;;21.57;11.70;;;2.20;76.40;;;;;;1900061;75;21063;-45
2022/01/27 13:16:05;;;;;;;19.30;10.18;;;2.20;76.40;;;;;;1857519;77;21819;-45
2022/01/27 13:18:45;;;;;;;23.12;10.85;;;2.10;75.50;;;;;;1900117;75;21103;-45
2022/01/27 13:21:30;;;;;;;18.32;10.40;;;2.10;75.80;;;;;;1856899;77;21050;-46
2022/01/27 13:24:16;;;;;;;18.80;10.70;;;2.10;76.90;;;;;;1899524;75;21000;-45
2022/01/27 13:26:46;;;;;;;21.80;11.60;;;2.10;77.40;;;;;;1900090;75;21157;-45
2022/01/27 13:29:19;;;;;;;26.10;14.58;;;2.20;77.00;;;;;;1900188;75;20976;-45
2022/01/27 13:31:49;;;;;;;26.55;14.13;;;2.30;77.40;;;;;;1900262;75;21070;-45
2022/01/27 13:34:18;;;;;;;27.70;12.45;;;2.30;77.60;;;;;;1882005;75;21090;-46
2022/01/27 13:36:58;;;;;;;23.87;13.83;;;2.40;77.20;;;;;;1864277;77;21124;-46
2022/01/27 13:42:01;;;;;;;23.45;14.60;;;2.60;77.90;;;;;;1864314;77;21053;-45
2022/01/27 13:44:31;;;;;;;27.73;14.73;;;2.70;77.70;;;;;;1863059;77;21500;-45